Time;durP1;ratioP1;P1;durP2;ratioP2;P2;SDS_P1;SDS_P2;PMS_P1;PMS_P2;Temp;Humidity;BMP_temperature;BMP_pressure;BME280_temperature;BME280_humidity;BME280_pressure;Samples;Min_cycle;Max_cycle;Signal;HPM_P1;HPM_P2
2022/04/09 00:02:24;;;;;;;5.38;1.35;;;;;;;;;;5093524;28;20063;-68
2022/04/09 00:04:50;;;;;;;9.82;2.20;;;5.10;99.90;;;;;;5075160;28;20157;-68
2022/04/09 00:07:15;;;;;;;7.30;1.45;;;5.10;99.90;;;;;;5075376;28;20034;-68
2022/04/09 00:09:41;;;;;;;9.18;1.35;;;4.90;99.90;;;;;;5074368;28;20036;-68
2022/04/09 00:12:08;;;;;;;4.22;1.30;;;5.00;99.90;;;;;;5075239;28;20397;-68
2022/04/09 00:14:35;;;;;;;7.95;1.58;;;4.80;99.90;;;;;;5092998;28;20044;-68
2022/04/09 00:17:08;;;;;;;5.53;1.20;;;;;;;;;;5058084;28;20123;-68
2022/04/09 00:19:37;;;;;;;5.55;1.40;;;4.90;99.90;;;;;;5091615;28;20046;-67
2022/04/09 00:22:03;;;;;;;6.07;1.52;;;5.00;99.90;;;;;;5075102;28;20036;-68
2022/04/09 00:24:29;;;;;;;8.95;2.05;;;4.80;99.90;;;;;;5069038;22;20041;-70
2022/04/09 00:26:55;;;;;;;9.65;1.83;;;4.80;99.90;;;;;;5035130;28;20414;-70
2022/04/09 00:29:20;;;;;;;9.13;1.92;;;4.90;99.90;;;;;;5050786;28;20487;-70
2022/04/09 00:31:46;;;;;;;6.57;1.80;;;4.90;99.90;;;;;;5051706;28;20044;-69
2022/04/09 00:34:12;;;;;;;8.90;2.20;;;5.10;99.90;;;;;;5051633;28;20053;-72
2022/04/09 00:36:38;;;;;;;14.98;2.20;;;5.00;99.90;;;;;;5052641;28;20055;-72
2022/04/09 00:39:04;;;;;;;15.45;2.20;;;5.10;99.90;;;;;;5051966;28;20055;-72
2022/04/09 00:41:30;;;;;;;10.32;2.38;;;5.00;99.90;;;;;;5034324;28;20044;-72
2022/04/09 00:43:56;;;;;;;10.93;2.95;;;5.20;99.90;;;;;;5051176;28;20407;-72
2022/04/09 00:46:21;;;;;;;13.57;2.22;;;5.20;99.90;;;;;;5051059;28;20457;-72
2022/04/09 00:48:47;;;;;;;12.82;2.05;;;5.30;99.90;;;;;;5051078;28;20553;-72
2022/04/09 00:51:12;;;;;;;8.35;2.35;;;5.20;99.90;;;;;;5050311;28;20041;-71
2022/04/09 00:53:42;;;;;;;6.55;1.90;;;5.30;99.90;;;;;;5050941;28;20127;-71
2022/04/09 00:56:13;;;;;;;7.78;1.80;;;5.30;99.90;;;;;;5052197;28;20041;-71
2022/04/09 00:58:55;;;;;;;9.98;1.98;;;5.40;99.90;;;;;;5050861;28;20048;-73
2022/04/09 01:01:26;;;;;;;7.18;2.30;;;5.40;99.90;;;;;;5052022;28;20387;-72
2022/04/09 01:03:53;;;;;;;7.93;1.70;;;5.20;99.90;;;;;;5050819;28;20450;-71
2022/04/09 01:06:19;;;;;;;4.53;1.33;;;5.20;99.90;;;;;;5051045;28;20102;-72
2022/04/09 01:08:45;;;;;;;6.53;1.23;;;5.20;99.90;;;;;;5050690;28;20629;-71
2022/04/09 01:11:14;;;;;;;7.35;1.17;;;5.00;99.90;;;;;;5051212;28;20087;-71
2022/04/09 01:13:44;;;;;;;6.10;1.25;;;5.10;99.90;;;;;;5050465;28;20044;-73
2022/04/09 01:16:10;;;;;;;8.70;1.17;;;5.00;99.90;;;;;;5052196;28;20045;-71
2022/04/09 01:18:36;;;;;;;8.13;2.13;;;5.00;99.90;;;;;;5050832;28;20081;-71
2022/04/09 01:21:04;;;;;;;5.47;1.13;;;5.10;99.90;;;;;;5050063;28;20461;-71
2022/04/09 01:23:30;;;;;;;7.10;1.35;;;;;;;;;;5051552;28;20060;-71
2022/04/09 01:25:57;;;;;;;6.82;1.77;;;4.90;99.90;;;;;;5051686;28;20041;-71
2022/04/09 01:28:24;;;;;;;4.75;1.55;;;5.00;99.90;;;;;;5052068;28;20053;-71
2022/04/09 01:30:50;;;;;;;4.22;0.88;;;4.90;99.90;;;;;;5049644;28;20503;-71
2022/04/09 01:33:21;;;;;;;9.30;1.50;;;4.80;99.90;;;;;;5034058;28;20127;-71
2022/04/09 01:35:47;;;;;;;4.10;1.02;;;4.90;99.90;;;;;;5050565;28;20037;-71
2022/04/09 01:38:14;;;;;;;4.20;1.48;;;4.90;99.90;;;;;;5050618;28;20391;-71
2022/04/09 01:40:40;;;;;;;4.90;0.95;;;4.80;99.90;;;;;;5033207;28;20037;-71
2022/04/09 01:43:06;;;;;;;4.43;1.20;;;4.80;99.90;;;;;;5051617;28;20495;-72
2022/04/09 01:45:31;;;;;;;8.52;1.20;;;4.90;99.90;;;;;;5050200;28;20087;-72
2022/04/09 01:47:58;;;;;;;8.45;1.35;;;4.80;99.90;;;;;;5051597;28;20036;-71
2022/04/09 01:50:27;;;;;;;5.65;0.90;;;4.80;99.90;;;;;;5050716;28;20672;-71
2022/04/09 01:52:53;;;;;;;7.03;1.08;;;4.70;99.90;;;;;;5051450;28;20406;-71
2022/04/09 01:55:19;;;;;;;8.95;2.28;;;4.70;99.90;;;;;;5033445;28;20052;-71
2022/04/09 01:57:46;;;;;;;8.05;1.98;;;4.70;99.90;;;;;;5050289;28;20511;-71
2022/04/09 02:00:12;;;;;;;9.57;1.30;;;4.80;99.90;;;;;;5050741;28;20045;-71
2022/04/09 02:02:38;;;;;;;9.45;1.50;;;4.60;99.90;;;;;;5050203;28;20039;-71
2022/04/09 02:05:04;;;;;;;10.05;2.28;;;4.80;99.90;;;;;;5033406;28;20029;-71
2022/04/09 02:07:30;;;;;;;8.48;1.65;;;4.80;99.90;;;;;;5049982;28;20041;-71
2022/04/09 02:09:55;;;;;;;10.95;2.58;;;4.70;99.90;;;;;;5049335;28;20040;-71
2022/04/09 02:12:21;;;;;;;5.78;1.63;;;4.80;99.90;;;;;;5050012;28;20069;-71
2022/04/09 02:14:47;;;;;;;10.55;1.80;;;4.80;99.90;;;;;;5049818;28;20033;-71
2022/04/09 02:17:13;;;;;;;7.97;1.73;;;4.70;99.90;;;;;;5049908;28;20052;-71
2022/04/09 02:19:39;;;;;;;11.50;2.30;;;4.70;99.90;;;;;;5032804;28;20402;-71
2022/04/09 02:22:05;;;;;;;5.10;1.40;;;4.80;99.90;;;;;;5051116;28;20037;-71
2022/04/09 02:24:31;;;;;;;8.35;1.33;;;4.90;99.90;;;;;;5049677;28;20029;-71
2022/04/09 02:26:57;;;;;;;7.28;1.20;;;4.70;99.90;;;;;;5049819;28;20048;-71
2022/04/09 02:29:22;;;;;;;5.20;1.42;;;4.70;99.90;;;;;;5049020;28;20091;-71
2022/04/09 02:31:48;;;;;;;11.02;1.40;;;4.80;99.90;;;;;;5051196;28;20045;-71
2022/04/09 02:34:14;;;;;;;8.82;2.53;;;4.70;99.90;;;;;;5051145;28;20190;-71
2022/04/09 02:36:39;;;;;;;9.07;2.03;;;4.90;99.90;;;;;;5049901;28;20168;-71
2022/04/09 02:39:05;;;;;;;10.73;2.20;;;4.80;99.90;;;;;;5049510;28;20041;-71
2022/04/09 02:41:31;;;;;;;10.18;1.92;;;4.90;99.90;;;;;;5050962;28;20403;-71
2022/04/09 02:43:57;;;;;;;6.30;2.10;;;4.80;99.90;;;;;;5051954;28;20032;-71
2022/04/09 02:46:23;;;;;;;5.78;1.30;;;4.80;99.90;;;;;;5054905;28;20052;-71
2022/04/09 02:48:49;;;;;;;3.65;1.10;;;5.00;99.90;;;;;;5036727;28;20452;-72
2022/04/09 02:51:14;;;;;;;5.28;1.30;;;4.80;99.90;;;;;;5052428;28;20041;-71
2022/04/09 02:53:40;;;;;;;6.82;1.35;;;4.70;99.90;;;;;;5053210;28;20083;-71
2022/04/09 02:56:05;;;;;;;7.75;1.20;;;4.80;99.90;;;;;;5053382;28;20048;-71
2022/04/09 02:58:31;;;;;;;7.93;2.00;;;4.70;99.90;;;;;;5053463;28;20048;-71
2022/04/09 03:00:56;;;;;;;14.13;1.80;;;4.60;99.90;;;;;;5053998;28;20060;-69
2022/04/09 03:03:22;;;;;;;7.35;1.38;;;;;;;;;;5054366;28;20450;-70
2022/04/09 03:05:48;;;;;;;9.82;1.98;;;4.80;99.90;;;;;;5036280;28;20443;-72
2022/04/09 03:08:14;;;;;;;9.90;1.90;;;4.80;99.90;;;;;;5054266;28;20059;-72
2022/04/09 03:10:40;;;;;;;10.15;1.60;;;;;;;;;;5053586;28;20095;-69
2022/04/09 03:13:06;;;;;;;11.27;2.13;;;5.00;99.90;;;;;;5052990;28;20553;-70
2022/04/09 03:15:32;;;;;;;11.48;3.60;;;4.90;99.90;;;;;;5054056;28;20120;-69
2022/04/09 03:17:57;;;;;;;6.70;1.75;;;4.90;99.90;;;;;;5052845;28;20037;-70
2022/04/09 03:20:23;;;;;;;9.40;2.92;;;4.90;99.90;;;;;;5052006;28;20090;-70
2022/04/09 03:22:49;;;;;;;10.45;3.10;;;4.80;99.90;;;;;;5052728;28;20083;-70
2022/04/09 03:25:15;;;;;;;11.75;3.90;;;4.80;99.90;;;;;;5036022;28;20055;-71
2022/04/09 03:27:41;;;;;;;13.15;2.97;;;4.70;99.90;;;;;;5054122;28;20507;-69
2022/04/09 03:30:08;;;;;;;12.27;3.67;;;4.60;99.90;;;;;;5051802;28;20041;-70
2022/04/09 03:32:39;;;;;;;8.63;1.60;;;4.60;99.90;;;;;;5052560;28;20122;-70
2022/04/09 03:35:06;;;;;;;8.57;1.80;;;4.60;99.90;;;;;;5053567;28;20048;-70
2022/04/09 03:37:35;;;;;;;6.20;2.25;;;4.60;99.90;;;;;;5052612;28;20041;-71
2022/04/09 03:40:04;;;;;;;5.13;1.30;;;4.60;99.90;;;;;;5052838;28;20508;-70
2022/04/09 03:42:30;;;;;;;10.80;2.05;;;4.60;99.90;;;;;;5052652;28;20063;-69
2022/04/09 03:44:56;;;;;;;5.57;1.80;;;4.60;99.90;;;;;;5053573;28;20033;-71
2022/04/09 03:47:21;;;;;;;6.50;1.50;;;4.20;99.90;;;;;;5053660;28;20557;-71
2022/04/09 03:49:47;;;;;;;9.25;2.13;;;4.40;99.90;;;;;;5051445;28;20037;-69
2022/04/09 03:52:13;;;;;;;10.57;1.70;;;4.50;99.90;;;;;;5053844;28;20041;-70
2022/04/09 03:54:39;;;;;;;12.23;2.38;;;4.40;99.90;;;;;;5035657;28;20072;-72
2022/04/09 03:57:05;;;;;;;12.27;1.77;;;4.50;99.90;;;;;;5053385;28;20394;-72
2022/04/09 03:59:31;;;;;;;13.10;1.63;;;4.60;99.90;;;;;;5051539;28;20045;-72
2022/04/09 04:01:56;;;;;;;9.35;2.03;;;4.50;99.90;;;;;;5051965;28;20513;-73
2022/04/09 04:04:22;;;;;;;4.03;1.30;;;4.50;99.90;;;;;;5053080;28;20040;-72
2022/04/09 04:06:48;;;;;;;6.72;1.65;;;4.60;99.90;;;;;;5053400;28;20049;-72
2022/04/09 04:09:16;;;;;;;6.85;1.40;;;4.40;99.90;;;;;;5051326;28;20040;-72
2022/04/09 04:11:43;;;;;;;6.65;1.67;;;4.50;99.90;;;;;;5035223;28;20154;-72
2022/04/09 04:14:09;;;;;;;9.25;2.05;;;4.50;99.90;;;;;;5051753;28;20079;-72
2022/04/09 04:16:35;;;;;;;11.85;2.08;;;4.40;99.90;;;;;;5052885;28;20041;-72
2022/04/09 04:19:00;;;;;;;5.22;1.33;;;4.60;99.90;;;;;;5051022;28;20037;-71
2022/04/09 04:21:27;;;;;;;4.68;1.15;;;4.70;99.90;;;;;;5052857;28;20055;-72
2022/04/09 04:23:52;;;;;;;10.45;3.22;;;4.80;99.90;;;;;;5052831;28;20040;-72
2022/04/09 04:26:18;;;;;;;11.40;1.67;;;4.70;99.90;;;;;;5051782;28;20056;-72
2022/04/09 04:28:48;;;;;;;14.93;2.15;;;4.70;99.90;;;;;;5052814;28;20041;-72
2022/04/09 04:31:16;;;;;;;7.18;1.35;;;4.70;99.90;;;;;;5050729;28;20037;-72
2022/04/09 04:33:42;;;;;;;12.43;1.65;;;4.70;99.90;;;;;;5052795;28;20080;-72
2022/04/09 04:36:07;;;;;;;11.63;1.50;;;4.60;99.90;;;;;;5052717;28;20080;-72
2022/04/09 04:38:33;;;;;;;9.32;1.42;;;4.80;99.90;;;;;;5051257;28;20055;-73
2022/04/09 04:41:00;;;;;;;12.25;2.88;;;4.70;99.90;;;;;;5051945;28;20450;-72
2022/04/09 04:43:26;;;;;;;9.90;1.60;;;;;;;;;;5051422;28;20037;-72
2022/04/09 04:45:51;;;;;;;7.97;2.03;;;4.70;99.90;;;;;;5051279;28;20040;-70
2022/04/09 04:48:20;;;;;;;17.83;3.80;;;4.80;99.90;;;;;;5051739;28;20495;-71
2022/04/09 04:50:46;;;;;;;9.68;2.67;;;4.60;99.90;;;;;;5050630;28;20044;-71
2022/04/09 04:53:12;;;;;;;8.45;1.70;;;4.80;99.90;;;;;;5034404;28;20086;-70
2022/04/09 04:55:37;;;;;;;7.90;2.38;;;4.80;99.90;;;;;;5052072;28;20053;-72
2022/04/09 04:58:03;;;;;;;16.23;2.10;;;4.80;99.90;;;;;;5050840;28;20074;-70
2022/04/09 05:00:28;;;;;;;9.75;2.10;;;4.80;99.90;;;;;;5050076;28;20067;-71
2022/04/09 05:02:55;;;;;;;6.93;1.70;;;4.80;99.90;;;;;;5051208;28;20025;-70
2022/04/09 05:05:21;;;;;;;10.38;1.67;;;4.70;99.90;;;;;;5051899;28;20048;-71
2022/04/09 05:07:49;;;;;;;6.03;1.25;;;4.90;99.90;;;;;;5050746;28;20059;-71
2022/04/09 05:10:17;;;;;;;10.55;1.83;;;4.90;99.90;;;;;;5050302;28;20434;-71
2022/04/09 05:12:43;;;;;;;7.18;1.48;;;4.90;99.90;;;;;;5050803;28;20037;-71
2022/04/09 05:15:11;;;;;;;7.90;1.80;;;5.10;99.90;;;;;;5050553;28;20572;-71
2022/04/09 05:17:37;;;;;;;3.20;1.33;;;5.30;99.90;;;;;;5050813;28;20122;-71
2022/04/09 05:20:04;;;;;;;3.92;1.23;;;5.30;99.90;;;;;;5050170;28;20482;-71
2022/04/09 05:22:30;;;;;;;5.45;1.13;;;5.10;99.90;;;;;;5050464;28;20127;-71
2022/04/09 05:24:56;;;;;;;5.13;1.42;;;5.20;99.90;;;;;;5034037;28;20433;-70
2022/04/09 05:27:22;;;;;;;9.00;1.42;;;5.20;99.90;;;;;;5051746;28;20059;-71
2022/04/09 05:29:48;;;;;;;8.13;1.52;;;5.00;99.90;;;;;;5049753;28;20044;-70
2022/04/09 05:32:14;;;;;;;11.05;1.60;;;5.10;99.90;;;;;;5051932;28;20044;-71
2022/04/09 05:34:39;;;;;;;9.90;1.98;;;5.00;99.90;;;;;;5033797;28;20144;-71
2022/04/09 05:37:05;;;;;;;17.45;2.33;;;5.00;99.90;;;;;;5050286;28;20045;-70
2022/04/09 05:39:31;;;;;;;13.68;2.17;;;5.00;99.90;;;;;;5049447;28;20036;-71
2022/04/09 05:41:57;;;;;;;11.10;2.25;;;5.00;99.90;;;;;;5051657;28;20120;-70
2022/04/09 05:44:22;;;;;;;7.43;1.67;;;5.20;99.90;;;;;;5049182;28;20129;-71
2022/04/09 05:46:48;;;;;;;9.00;1.70;;;5.00;99.90;;;;;;5032919;28;20075;-71
2022/04/09 05:49:13;;;;;;;7.63;1.63;;;5.20;99.90;;;;;;5049328;28;20037;-70
2022/04/09 05:51:39;;;;;;;5.45;1.75;;;5.30;99.90;;;;;;5050228;28;20092;-71
2022/04/09 05:54:05;;;;;;;10.13;1.90;;;5.20;99.90;;;;;;5050431;28;20092;-70
2022/04/09 05:56:30;;;;;;;12.02;2.00;;;5.30;99.90;;;;;;5050227;28;20053;-71
2022/04/09 05:58:56;;;;;;;10.55;1.92;;;5.20;99.90;;;;;;5050376;28;20036;-70
2022/04/09 06:01:22;;;;;;;5.60;1.88;;;5.40;99.90;;;;;;5049895;28;20060;-70
2022/04/09 06:03:47;;;;;;;6.43;1.60;;;5.40;99.90;;;;;;5051025;28;20138;-70
2022/04/09 06:06:13;;;;;;;13.40;2.78;;;5.40;99.90;;;;;;5051459;28;20052;-69
2022/04/09 06:08:39;;;;;;;15.20;2.40;;;5.60;99.90;;;;;;5051356;28;20123;-71
2022/04/09 06:11:05;;;;;;;6.13;1.85;;;5.60;99.90;;;;;;5050845;28;20438;-70
2022/04/09 06:13:31;;;;;;;13.10;2.33;;;;;;;;;;5049978;28;20049;-70
2022/04/09 06:15:57;;;;;;;12.82;2.30;;;6.00;99.90;;;;;;5050288;28;20045;-70
2022/04/09 06:18:22;;;;;;;10.77;1.52;;;5.90;99.90;;;;;;5052905;28;20544;-70
2022/04/09 06:20:48;;;;;;;13.52;2.13;;;5.90;99.90;;;;;;5054694;28;20036;-72
2022/04/09 06:23:14;;;;;;;11.43;1.80;;;5.80;99.90;;;;;;5037392;28;20044;-71
2022/04/09 06:25:39;;;;;;;6.18;1.85;;;5.80;99.90;;;;;;5064168;22;20049;-67
2022/04/09 06:28:07;;;;;;;13.55;1.95;;;5.70;99.90;;;;;;5054849;28;20070;-68
2022/04/09 06:30:32;;;;;;;12.30;2.92;;;5.70;99.90;;;;;;5036483;28;20441;-68
2022/04/09 06:32:58;;;;;;;8.77;1.45;;;5.70;99.90;;;;;;5055045;28;20078;-68
2022/04/09 06:35:25;;;;;;;8.75;2.35;;;5.50;99.90;;;;;;5036696;28;20067;-69
2022/04/09 06:37:50;;;;;;;7.95;1.80;;;5.50;99.90;;;;;;5020327;28;20036;-68
2022/04/09 06:40:16;;;;;;;15.75;1.73;;;5.60;99.90;;;;;;5036073;28;20525;-68
2022/04/09 06:42:42;;;;;;;10.77;2.25;;;;;;;;;;5036802;28;20430;-68
2022/04/09 06:45:09;;;;;;;6.82;1.67;;;6.10;99.90;;;;;;5037031;28;20119;-69
2022/04/09 06:47:37;;;;;;;11.57;2.25;;;6.00;99.90;;;;;;5020734;28;20473;-68
2022/04/09 06:50:09;;;;;;;12.52;1.92;;;6.30;99.90;;;;;;5029822;28;20044;-68
2022/04/09 06:52:35;;;;;;;16.63;2.92;;;6.40;99.90;;;;;;5053864;28;20033;-68
2022/04/09 06:55:00;;;;;;;14.60;3.17;;;6.60;99.90;;;;;;5054005;28;20120;-68
2022/04/09 06:57:28;;;;;;;8.30;2.38;;;;;;;;;;5031274;28;20491;-68
2022/04/09 06:59:57;;;;;;;14.73;1.60;;;6.70;99.90;;;;;;5057763;28;20052;-68
2022/04/09 07:02:23;;;;;;;3.72;1.23;;;6.80;99.90;;;;;;5032420;28;20053;-69
2022/04/09 07:04:49;;;;;;;6.95;1.27;;;6.50;99.90;;;;;;5032613;28;20040;-68
2022/04/09 07:07:25;;;;;;;9.75;1.10;;;6.40;99.90;;;;;;5032188;28;20044;-69
2022/04/09 07:09:54;;;;;;;6.25;1.05;;;6.40;99.90;;;;;;5031222;28;20044;-70
2022/04/09 07:12:22;;;;;;;7.05;1.10;;;6.30;99.90;;;;;;5050344;28;20055;-68
2022/04/09 07:14:48;;;;;;;10.63;1.15;;;6.30;99.90;;;;;;5032226;28;20111;-68
2022/04/09 07:17:20;;;;;;;6.00;1.83;;;6.40;99.90;;;;;;5031545;28;20506;-70
2022/04/09 07:19:45;;;;;;;4.85;1.38;;;6.60;99.90;;;;;;5040992;28;20052;-68
2022/04/09 07:22:11;;;;;;;6.20;1.45;;;6.60;99.90;;;;;;5041363;28;20521;-69
2022/04/09 07:24:36;;;;;;;9.48;1.60;;;6.60;99.90;;;;;;5045053;28;20111;-68
2022/04/09 07:27:02;;;;;;;8.23;1.75;;;;;;;;;;5042912;28;20175;-69
2022/04/09 07:29:28;;;;;;;11.88;1.80;;;6.90;99.90;;;;;;5034586;28;20036;-69
2022/04/09 07:31:53;;;;;;;8.13;2.13;;;6.90;99.90;;;;;;5053687;28;20037;-68
2022/04/09 07:34:19;;;;;;;9.63;2.00;;;7.20;99.90;;;;;;5053595;28;20033;-68
2022/04/09 07:36:45;;;;;;;9.95;1.65;;;7.30;99.90;;;;;;5053204;28;20114;-69
2022/04/09 07:39:11;;;;;;;8.55;1.92;;;;;;;;;;5052903;28;20048;-68
2022/04/09 07:41:36;;;;;;;12.88;1.75;;;7.40;99.90;;;;;;5035556;28;20507;-68
2022/04/09 07:44:02;;;;;;;11.30;1.48;;;7.40;99.90;;;;;;5053287;28;20025;-68
2022/04/09 07:46:27;;;;;;;5.90;1.45;;;7.30;99.90;;;;;;5034914;28;20040;-68
2022/04/09 07:48:53;;;;;;;18.17;2.85;;;7.50;99.90;;;;;;5033545;28;20045;-67
2022/04/09 07:51:19;;;;;;;7.32;1.80;;;7.50;99.90;;;;;;5033923;28;20499;-68
2022/04/09 07:53:44;;;;;;;9.85;1.60;;;7.60;99.90;;;;;;5034776;28;20048;-68
2022/04/09 07:56:10;;;;;;;6.63;1.30;;;7.60;99.90;;;;;;5034884;28;20064;-68
2022/04/09 07:58:37;;;;;;;5.80;1.83;;;7.60;99.90;;;;;;5034791;28;20077;-68
2022/04/09 08:01:03;;;;;;;6.47;1.40;;;7.50;99.90;;;;;;5034405;28;20060;-68
2022/04/09 08:03:28;;;;;;;14.52;1.80;;;7.60;99.90;;;;;;5052944;28;20406;-68
2022/04/09 08:05:54;;;;;;;7.72;1.40;;;7.70;99.90;;;;;;5034446;28;20499;-69
2022/04/09 08:08:19;;;;;;;9.57;1.20;;;7.60;99.90;;;;;;5018577;28;20038;-68
2022/04/09 08:10:45;;;;;;;9.43;1.60;;;;;;;;;;5034280;28;20044;-68
2022/04/09 08:13:11;;;;;;;7.30;1.13;;;;;;;;;;5035272;28;20498;-68
2022/04/09 08:15:37;;;;;;;7.47;1.05;;;;;;;;;;5034869;28;20199;-68
2022/04/09 08:18:04;;;;;;;7.50;1.52;;;;;;;;;;5033850;28;20064;-69
2022/04/09 08:20:30;;;;;;;9.15;1.42;;;;;;;;;;5052024;28;20096;-68
2022/04/09 08:22:56;;;;;;;9.50;1.30;;;;;;;;;;5052885;28;20033;-68
2022/04/09 08:25:22;;;;;;;7.47;1.70;;;;;;;;;;5052384;28;20037;-68
2022/04/09 08:27:52;;;;;;;8.15;2.33;;;;;;;;;;5034497;28;20068;-68
2022/04/09 08:30:19;;;;;;;10.88;3.10;;;;;;;;;;5051601;28;20052;-68
2022/04/09 08:32:45;;;;;;;13.15;1.70;;;8.50;99.90;;;;;;5052456;28;20470;-68
2022/04/09 08:35:11;;;;;;;6.32;1.50;;;;;;;;;;5052452;28;20068;-68
2022/04/09 08:37:38;;;;;;;9.65;1.73;;;;;;;;;;5034781;28;20414;-69
2022/04/09 08:40:04;;;;;;;10.02;2.42;;;8.30;99.90;;;;;;5016891;28;20037;-68
2022/04/09 08:42:35;;;;;;;9.10;1.30;;;8.30;99.90;;;;;;5033753;28;20125;-68
2022/04/09 08:45:01;;;;;;;11.95;2.08;;;;;;;;;;5034368;28;20407;-68
2022/04/09 08:47:28;;;;;;;10.43;1.95;;;8.20;99.90;;;;;;5052260;28;20044;-67
2022/04/09 08:49:56;;;;;;;9.13;1.98;;;8.40;99.90;;;;;;5041565;28;20059;-66
2022/04/09 08:52:22;;;;;;;8.20;1.65;;;;;;;;;;5052040;28;20124;-68
2022/04/09 08:54:48;;;;;;;7.07;1.77;;;;;;;;;;5050674;28;20410;-70
2022/04/09 08:57:14;;;;;;;13.60;1.63;;;8.10;99.90;;;;;;5050826;28;20412;-68
2022/04/09 08:59:40;;;;;;;6.65;1.67;;;;;;;;;;5019161;28;20040;-69
2022/04/09 09:02:06;;;;;;;10.60;2.10;;;;;;;;;;5052009;28;20044;-67
2022/04/09 09:04:33;;;;;;;8.55;1.55;;;;;;;;;;5033923;28;20044;-69
2022/04/09 09:07:18;;;;;;;6.95;1.30;;;;;;;;;;5050184;28;20040;-68
2022/04/09 09:09:44;;;;;;;11.73;1.63;;;;;;;;;;5032117;28;20049;-67
2022/04/09 09:12:12;;;;;;;6.95;1.60;;;;;;;;;;5033538;28;20468;-67
2022/04/09 09:14:44;;;;;;;11.18;1.70;;;8.60;99.90;;;;;;5033659;28;20494;-67
2022/04/09 09:17:11;;;;;;;12.02;1.63;;;8.80;99.90;;;;;;5017454;28;20104;-67
2022/04/09 09:19:48;;;;;;;6.65;2.00;;;8.70;99.90;;;;;;5033232;28;20037;-68
2022/04/09 09:22:14;;;;;;;6.50;2.08;;;8.60;99.90;;;;;;5033805;28;20040;-68
2022/04/09 09:24:40;;;;;;;6.47;1.80;;;8.40;99.90;;;;;;5033662;28;20053;-68
2022/04/09 09:27:07;;;;;;;5.93;1.63;;;;;;;;;;5033571;28;20049;-67
2022/04/09 09:29:34;;;;;;;7.68;1.45;;;8.90;99.90;;;;;;5032611;28;20058;-68
2022/04/09 09:32:01;;;;;;;8.82;1.00;;;9.10;99.90;;;;;;5033627;28;20045;-68
2022/04/09 09:34:28;;;;;;;4.97;1.60;;;9.50;99.90;;;;;;5033459;28;20041;-69
2022/04/09 09:36:55;;;;;;;6.68;1.60;;;9.60;99.90;;;;;;5016989;28;20060;-68
2022/04/09 09:39:22;;;;;;;9.75;2.63;;;8.90;99.90;;;;;;5032794;28;20052;-69
2022/04/09 09:41:56;;;;;;;8.77;1.70;;;8.10;99.90;;;;;;5033692;28;20446;-69
2022/04/09 09:44:25;;;;;;;4.82;1.45;;;8.00;99.90;;;;;;5033543;28;20118;-68
2022/04/09 09:46:53;;;;;;;5.28;1.65;;;8.90;99.90;;;;;;5033553;28;20045;-69
2022/04/09 09:49:22;;;;;;;4.93;1.77;;;7.80;99.90;;;;;;5032380;28;20100;-68
2022/04/09 09:52:08;;;;;;;7.20;1.27;;;;;;;;;;5033549;28;20053;-70
2022/04/09 09:54:34;;;;;;;5.60;1.60;;;;;;;;;;5051181;28;20049;-69
2022/04/09 09:57:01;;;;;;;2.63;1.20;;;7.90;99.90;;;;;;5033237;28;20077;-69
2022/04/09 09:59:28;;;;;;;6.40;1.67;;;8.20;99.90;;;;;;5032613;28;20033;-69
2022/04/09 10:01:55;;;;;;;4.80;1.58;;;8.10;99.90;;;;;;5051069;28;20106;-69
2022/04/09 10:04:22;;;;;;;4.65;1.80;;;;;;;;;;5017107;28;20041;-68
2022/04/09 10:06:47;;;;;;;6.15;1.48;;;;;;;;;;5032790;28;20057;-68
2022/04/09 10:09:14;;;;;;;5.15;1.08;;;;;;;;;;5008038;28;20446;-69
2022/04/09 10:11:49;;;;;;;4.10;1.08;;;;;;;;;;5035153;28;20045;-69
2022/04/09 10:14:17;;;;;;;7.22;1.33;;;;;;;;;;5053729;28;20109;-69
2022/04/09 10:16:45;;;;;;;6.75;1.27;;;6.90;99.90;;;;;;5047095;28;20055;-69
2022/04/09 10:19:11;;;;;;;9.00;1.65;;;6.80;99.90;;;;;;5048623;28;20084;-69
2022/04/09 10:21:43;;;;;;;8.05;1.17;;;;;;;;;;5048652;28;20052;-71
2022/04/09 10:24:17;;;;;;;4.90;0.88;;;;;;;;;;5049425;28;20055;-70
2022/04/09 10:26:43;;;;;;;8.02;1.33;;;;;;;;;;5048900;28;20052;-68
2022/04/09 10:29:10;;;;;;;4.72;0.98;;;;;;;;;;5066616;28;20469;-69
2022/04/09 10:31:37;;;;;;;6.75;1.55;;;;;;;;;;5049009;28;20250;-69
2022/04/09 10:34:04;;;;;;;4.75;1.13;;;;;;;;;;5019693;28;20066;-66
2022/04/09 10:36:45;;;;;;;8.93;1.27;;;8.40;99.90;;;;;;5032524;28;20522;-69
2022/04/09 10:39:39;;;;;;;5.25;1.13;;;;;;;;;;5026986;28;20067;-69
2022/04/09 10:42:08;;;;;;;8.85;2.30;;;9.30;99.90;;;;;;5033257;28;20079;-69
2022/04/09 10:44:43;;;;;;;4.45;1.02;;;8.70;99.90;;;;;;5036064;28;20052;-71
2022/04/09 10:47:11;;;;;;;7.10;1.30;;;;;;;;;;5035231;28;20083;-70
2022/04/09 10:49:37;;;;;;;10.43;1.17;;;;;;;;;;5038886;28;20056;-70
2022/04/09 10:52:03;;;;;;;7.72;1.60;;;;;;;;;;5017804;28;20040;-70
2022/04/09 10:54:30;;;;;;;3.47;1.13;;;;;;;;;;5032555;28;20037;-69
2022/04/09 10:57:05;;;;;;;7.18;1.17;;;;;;;;;;5001990;28;20052;-70
2022/04/09 10:59:33;;;;;;;3.28;0.82;;;;;;;;;;5014273;28;20507;-69
2022/04/09 11:01:59;;;;;;;4.03;0.70;;;;;;;;;;5018428;28;20112;-70
2022/04/09 11:04:37;;;;;;;2.92;1.00;;;9.10;99.90;;;;;;5018258;28;20207;-69
2022/04/09 11:07:08;;;;;;;4.40;1.00;;;9.40;99.90;;;;;;5030840;28;20052;-69
2022/04/09 11:09:42;;;;;;;7.30;1.30;;;9.70;99.90;;;;;;5054197;28;20056;-69
2022/04/09 11:12:09;;;;;;;4.80;0.68;;;;;;;;;;5030233;28;20042;-70
2022/04/09 11:14:47;;;;;;;8.50;1.00;;;9.50;99.90;;;;;;5036088;28;20055;-68
2022/04/09 11:17:37;;;;;;;6.78;1.38;;;9.40;99.90;;;;;;5052158;28;20079;-67
2022/04/09 11:20:10;;;;;;;5.60;1.00;;;9.10;99.90;;;;;;5050264;28;20070;-68
2022/04/09 11:22:38;;;;;;;8.80;2.33;;;9.10;99.90;;;;;;5052010;28;20043;-68
2022/04/09 11:25:05;;;;;;;6.47;1.23;;;8.90;99.90;;;;;;5051420;28;20373;-67
2022/04/09 11:27:31;;;;;;;5.53;1.00;;;;;;;;;;5061175;28;20041;-67
2022/04/09 11:29:58;;;;;;;9.95;1.50;;;;;;;;;;5062185;28;20120;-68
2022/04/09 11:32:25;;;;;;;9.25;1.17;;;9.10;99.90;;;;;;5053773;28;20044;-67
2022/04/09 11:34:51;;;;;;;5.55;1.20;;;;;;;;;;5072490;28;20040;-67
2022/04/09 11:37:18;;;;;;;3.38;1.00;;;;;;;;;;5055502;28;20387;-67
2022/04/09 11:39:47;;;;;;;10.25;2.15;;;8.50;99.90;;;;;;5054847;28;20063;-66
2022/04/09 11:42:13;;;;;;;3.17;0.60;;;8.20;99.90;;;;;;5073564;28;20039;-66
2022/04/09 11:44:39;;;;;;;3.80;0.55;;;;;;;;;;5060418;28;20118;-67
2022/04/09 11:47:09;;;;;;;2.15;0.30;;;8.90;99.90;;;;;;5035662;28;20398;-66
2022/04/09 11:49:34;;;;;;;2.25;0.38;;;9.10;99.90;;;;;;5033670;28;20041;-66
2022/04/09 11:52:00;;;;;;;2.20;0.43;;;;;;;;;;5027178;28;20052;-68
2022/04/09 11:54:30;;;;;;;1.77;0.50;;;8.40;99.90;;;;;;5044644;28;20029;-67
2022/04/09 11:56:56;;;;;;;2.17;0.77;;;;;;;;;;5029879;28;20045;-66
2022/04/09 11:59:22;;;;;;;2.03;0.47;;;8.00;99.90;;;;;;5026376;28;20046;-67
2022/04/09 12:01:48;;;;;;;1.67;0.38;;;;;;;;;;5033856;28;20041;-66
2022/04/09 12:04:15;;;;;;;2.20;0.40;;;;;;;;;;5031645;28;20034;-67
2022/04/09 12:06:41;;;;;;;2.35;0.50;;;;;;;;;;5049727;28;20491;-67
2022/04/09 12:09:07;;;;;;;2.97;0.85;;;;;;;;;;5031719;28;20045;-67
2022/04/09 12:11:33;;;;;;;2.45;1.08;;;;;;;;;;5030847;28;20037;-67
2022/04/09 12:14:17;;;;;;;2.70;0.68;;;8.40;99.90;;;;;;5051401;28;20436;-67
2022/04/09 12:16:43;;;;;;;2.00;0.52;;;;;;;;;;5031121;28;20471;-68
2022/04/09 12:19:09;;;;;;;3.85;0.50;;;;;;;;;;5023351;28;20042;-68
2022/04/09 12:21:36;;;;;;;4.03;0.90;;;;;;;;;;5032939;28;20041;-67
2022/04/09 12:26:39;;;;;;;3.97;0.73;;;9.40;99.90;;;;;;5110530;22;20051;-70
2022/04/09 12:29:22;;;;;;;6.18;0.60;;;9.40;99.90;;;;;;5070332;28;20078;-73
2022/04/09 12:31:51;;;;;;;5.45;0.85;;;;;;;;;;5082337;28;20074;-71
2022/04/09 12:34:17;;;;;;;4.43;0.73;;;9.80;99.90;;;;;;5086585;28;20035;-71
2022/04/09 12:37:02;;;;;;;6.20;1.27;;;10.10;99.90;;;;;;5082220;28;20051;-72
2022/04/09 12:39:32;;;;;;;4.43;2.10;;;;;;;;;;5060458;28;20039;-71
2022/04/09 12:41:58;;;;;;;4.75;0.90;;;;;;;;;;5082806;28;20036;-70
2022/04/09 12:44:37;;;;;;;4.75;1.50;;;9.90;99.90;;;;;;5053754;28;20391;-70
2022/04/09 12:47:08;;;;;;;6.43;1.13;;;9.40;99.90;;;;;;5062244;28;20039;-73
2022/04/09 12:49:38;;;;;;;5.28;1.00;;;;;;;;;;5060277;28;20520;-73
2022/04/09 12:52:09;;;;;;;4.82;0.60;;;;;;;;;;5038922;28;20067;-73
2022/04/09 12:54:38;;;;;;;3.03;0.55;;;;;;;;;;5078936;28;20119;-70
2022/04/09 12:57:08;;;;;;;4.93;1.25;;;;;;;;;;5079844;28;20555;-71
2022/04/09 12:59:34;;;;;;;1.25;0.50;;;;;;;;;;5052428;28;20043;-73
2022/04/09 13:02:01;;;;;;;2.90;0.40;;;;;;;;;;5040852;28;20052;-71
2022/04/09 13:04:27;;;;;;;4.57;0.60;;;;;;;;;;5051047;28;20135;-73
2022/04/09 13:06:53;;;;;;;4.70;1.00;;;;;;;;;;5061237;28;20073;-72
2022/04/09 13:09:25;;;;;;;3.63;0.70;;;;;;;;;;5045819;28;20611;-71
2022/04/09 13:11:56;;;;;;;0.77;0.57;;;;;;;;;;5075839;28;20048;-70
2022/04/09 13:14:22;;;;;;;7.10;1.08;;;;;;;;;;5060293;28;20043;-71
2022/04/09 13:16:51;;;;;;;3.35;1.00;;;9.00;99.90;;;;;;5058681;28;20048;-70
2022/04/09 13:19:17;;;;;;;1.60;0.40;;;;;;;;;;5061721;28;20433;-71
2022/04/09 13:21:45;;;;;;;3.22;0.38;;;;;;;;;;5058007;28;20043;-74
2022/04/09 13:24:11;;;;;;;2.53;0.45;;;;;;;;;;5045533;28;20535;-69